Bouzas — EAPC — position and weather

sailwx.info

Track history (hours):
 
Tides and Currents Weather Stations Pressure Air Temp Water Temp Dewpoint Dewpoint Depression Visibility Wind Speed Wind Dir Waves Ship Positions

Bouzas

Last reported at 2016-Feb-06 15:22 UTC. Time now 2016-Feb-07 21:53 UTC.
Position N 47°03' W 002°32'.

Length 142 m; draft 5.9 m.

Type: Cargo ship. MMSI: 224029000.

Date/timePositionNaut miles runAvg speedWind from/ knotsBaromVisibWave heightAir tempDewpointWater temp
2016-Feb-06 15:22N 47°03' W 002°32'9 8.9
2016-Feb-06 14:19N 47°08' W 002°20'1214.6
2016-Feb-06 13:31N 47°17' W 002°10'0 0.0
2016-Feb-06 00:21N 47°17' W 002°10'0 0.0
2016-Feb-05 22:24N 47°17' W 002°10'0 0.0
2016-Feb-05 21:18N 47°17' W 002°10'0 0.0
2016-Feb-05 19:30N 47°17' W 002°10'0 0.0
2016-Feb-05 18:33N 47°17' W 002°10'0 0.0
2016-Feb-05 17:30N 47°17' W 002°10'0 0.0
2016-Feb-05 16:33N 47°17' W 002°10'0 0.0
2016-Feb-05 15:24N 47°17' W 002°10'0 0.0
2016-Feb-05 14:33N 47°17' W 002°10'0 0.0
2016-Feb-05 13:33N 47°17' W 002°10'0 0.0
2016-Feb-05 12:24N 47°17' W 002°10'0 0.0
2016-Feb-05 11:30N 47°17' W 002°10'0 0.0
2016-Feb-05 10:30N 47°17' W 002°10'0 0.0
2016-Feb-05 09:33N 47°17' W 002°10'0 0.0
2016-Feb-05 08:33N 47°17' W 002°10'0 0.0
2016-Feb-05 07:33N 47°17' W 002°10'0 0.0
2016-Feb-05 06:33N 47°17' W 002°10'0 0.0
2016-Feb-05 05:33N 47°17' W 002°10'0 0.0
2016-Feb-05 04:33N 47°17' W 002°10'0 0.0
2016-Feb-05 03:33N 47°17' W 002°10'0 0.0
2016-Feb-05 02:33N 47°17' W 002°10'0 0.0
2016-Feb-05 01:33N 47°17' W 002°10'0 0.0
2016-Feb-05 00:33N 47°17' W 002°10'0 0.0
2016-Feb-04 23:33N 47°17' W 002°10'0 0.0
2016-Feb-04 22:33N 47°17' W 002°10'0 0.0
2016-Feb-04 21:33N 47°17' W 002°10'9 9.3
2016-Feb-04 20:33N 47°10' W 002°19'  
2016-Feb-02 03:26N 47°03' W 002°33'9 2.1
2016-Feb-01 23:08N 46°59' W 002°44'916.6
2016-Feb-01 22:33N 47°03' W 002°32'1815.9
2016-Feb-01 21:27N 47°15' W 002°13'3 0.8
2016-Feb-01 17:06N 47°17' W 002°10'0 0.0
2016-Feb-01 16:30N 47°17' W 002°10'0 0.0
2016-Feb-01 15:33N 47°17' W 002°10'0 0.0
2016-Feb-01 14:24N 47°17' W 002°10'0 0.0
2016-Feb-01 13:33N 47°17' W 002°10'0 0.0
2016-Feb-01 12:30N 47°17' W 002°10'0 0.0
2016-Feb-01 11:30N 47°17' W 002°10'0 0.0
2016-Feb-01 10:30N 47°17' W 002°10'0 0.0
2016-Feb-01 09:33N 47°17' W 002°10'0 0.0
2016-Feb-01 08:30N 47°17' W 002°10'0 0.0
2016-Feb-01 07:33N 47°17' W 002°10'0 0.0
2016-Feb-01 06:33N 47°17' W 002°10'0 0.0
2016-Feb-01 05:33N 47°17' W 002°10'0 0.0
2016-Feb-01 04:30N 47°17' W 002°10'0 0.0
2016-Feb-01 03:27N 47°17' W 002°10'0 0.0
2016-Feb-01 02:33N 47°17' W 002°10'0 0.0
2016-Feb-01 01:30N 47°17' W 002°10'0 0.0
2016-Feb-01 00:30N 47°17' W 002°10'0 0.0
2016-Jan-31 23:33N 47°17' W 002°10'9 9.3
2016-Jan-31 22:33N 47°10' W 002°18'1515.5
2016-Jan-31 21:34N 47°01' W 002°36'1817.3
2016-Jan-31 20:33N 46°54' W 002°60'  
2016-Jan-28 01:25N 46°48' W 003°08'1515.6
2016-Jan-28 00:28N 46°56' W 002°50'1516.0
2016-Jan-27 23:33N 47°03' W 002°32'1515.5
2016-Jan-27 22:33N 47°14' W 002°16'  
Track history (hours):
 
Tides and Currents Weather Stations Pressure Air Temp Water Temp Dewpoint Dewpoint Depression Visibility Wind Speed Wind Dir Waves Ship Positions

Bouzas

Last reported at 2016-Feb-06 15:22 UTC. Time now 2016-Feb-07 21:53 UTC.
Position N 47°03' W 002°32'.

Length 142 m; draft 5.9 m.

Type: Cargo ship. MMSI: 224029000.

Date/timePositionNaut miles runAvg speedWind from/ knotsBaromVisibWave heightAir tempDewpointWater temp
2016-Feb-06 15:22N 47°03' W 002°32'9 8.9
2016-Feb-06 14:19N 47°08' W 002°20'1214.6
2016-Feb-06 13:31N 47°17' W 002°10'0 0.0
2016-Feb-06 00:21N 47°17' W 002°10'0 0.0
2016-Feb-05 22:24N 47°17' W 002°10'0 0.0
2016-Feb-05 21:18N 47°17' W 002°10'0 0.0
2016-Feb-05 19:30N 47°17' W 002°10'0 0.0
2016-Feb-05 18:33N 47°17' W 002°10'0 0.0
2016-Feb-05 17:30N 47°17' W 002°10'0 0.0
2016-Feb-05 16:33N 47°17' W 002°10'0 0.0
2016-Feb-05 15:24N 47°17' W 002°10'0 0.0
2016-Feb-05 14:33N 47°17' W 002°10'0 0.0
2016-Feb-05 13:33N 47°17' W 002°10'0 0.0
2016-Feb-05 12:24N 47°17' W 002°10'0 0.0
2016-Feb-05 11:30N 47°17' W 002°10'0 0.0
2016-Feb-05 10:30N 47°17' W 002°10'0 0.0
2016-Feb-05 09:33N 47°17' W 002°10'0 0.0
2016-Feb-05 08:33N 47°17' W 002°10'0 0.0
2016-Feb-05 07:33N 47°17' W 002°10'0 0.0
2016-Feb-05 06:33N 47°17' W 002°10'0 0.0
2016-Feb-05 05:33N 47°17' W 002°10'0 0.0
2016-Feb-05 04:33N 47°17' W 002°10'0 0.0
2016-Feb-05 03:33N 47°17' W 002°10'0 0.0
2016-Feb-05 02:33N 47°17' W 002°10'0 0.0
2016-Feb-05 01:33N 47°17' W 002°10'0 0.0
2016-Feb-05 00:33N 47°17' W 002°10'0 0.0
2016-Feb-04 23:33N 47°17' W 002°10'0 0.0
2016-Feb-04 22:33N 47°17' W 002°10'0 0.0
2016-Feb-04 21:33N 47°17' W 002°10'9 9.3
2016-Feb-04 20:33N 47°10' W 002°19'  
2016-Feb-02 03:26N 47°03' W 002°33'9 2.1
2016-Feb-01 23:08N 46°59' W 002°44'916.6
2016-Feb-01 22:33N 47°03' W 002°32'1815.9
2016-Feb-01 21:27N 47°15' W 002°13'3 0.8
2016-Feb-01 17:06N 47°17' W 002°10'0 0.0
2016-Feb-01 16:30N 47°17' W 002°10'0 0.0
2016-Feb-01 15:33N 47°17' W 002°10'0 0.0
2016-Feb-01 14:24N 47°17' W 002°10'0 0.0
2016-Feb-01 13:33N 47°17' W 002°10'0 0.0
2016-Feb-01 12:30N 47°17' W 002°10'0 0.0
2016-Feb-01 11:30N 47°17' W 002°10'0 0.0
2016-Feb-01 10:30N 47°17' W 002°10'0 0.0
2016-Feb-01 09:33N 47°17' W 002°10'0 0.0
2016-Feb-01 08:30N 47°17' W 002°10'0 0.0
2016-Feb-01 07:33N 47°17' W 002°10'0 0.0
2016-Feb-01 06:33N 47°17' W 002°10'0 0.0
2016-Feb-01 05:33N 47°17' W 002°10'0 0.0
2016-Feb-01 04:30N 47°17' W 002°10'0 0.0
2016-Feb-01 03:27N 47°17' W 002°10'0 0.0
2016-Feb-01 02:33N 47°17' W 002°10'0 0.0
2016-Feb-01 01:30N 47°17' W 002°10'0 0.0
2016-Feb-01 00:30N 47°17' W 002°10'0 0.0
2016-Jan-31 23:33N 47°17' W 002°10'9 9.3
2016-Jan-31 22:33N 47°10' W 002°18'1515.5
2016-Jan-31 21:34N 47°01' W 002°36'1817.3
2016-Jan-31 20:33N 46°54' W 002°60'  
2016-Jan-28 01:25N 46°48' W 003°08'1515.6
2016-Jan-28 00:28N 46°56' W 002°50'1516.0
2016-Jan-27 23:33N 47°03' W 002°32'1515.5
2016-Jan-27 22:33N 47°14' W 002°16'  

Dump ship's entire track history